aviador You're here:

KRVS Decoded Metar

TULSA in OK, USA
Report Time2018-02-22 05:53:00
UTC Time2018-02-22 06:43:17
Flight Rules ifr IFR
Wind010° at 05 kt
W.Decomp.*RWY 01: 5.0 kt HW 0.5 kt LCW
RWY 31: 2.9 kt HW 4.0 kt RCW
W.Rank010° ranks 5
Current wind is below 010° avg. (7.1)
Visibility9999 m
Phenomena:N/A
Clouds:Overcast 006 Hf
Expected CloudBase > 400 ft AGL from Temp-Dew spread
Ceiling600 ft
Temp-1°C (ISA -15)
Dew Point-2°C (93% RH)
AAT-5.1°C
QNH1028 hPa
Density Alt-1,578 ft
Elevation656 ft
Report Wrong Elevation
Raw Report
KRVS 220553Z AUTO 01005KT 7SM OVC006 M01/M02 A3037 RMK AO2 SLP294
60000 I6000 T10111022 11011 21011 410111039 50002=

Extra information for KRVS:More info

Metar Taf Metar & Taf Last 4 Metars F.Rules Stats Wind Profile Meteogram Temp Stats Airport Information Weather charts Add Link Nearby VenuesMetar ALERT Operation Metar Decoded Social comments

AIRNAV info for KRVS